createdAt,value
2018-04-16T00:00:14.368Z,97360
2018-04-16T00:02:42.635Z,97365
2018-04-16T00:05:11.728Z,97356
2018-04-16T00:07:39.969Z,97352
2018-04-16T00:10:09.651Z,97358
2018-04-16T00:12:38.553Z,97357
2018-04-16T00:15:08.718Z,97351
2018-04-16T00:17:36.994Z,97352
2018-04-16T00:20:05.361Z,97357
2018-04-16T00:22:34.752Z,97362
2018-04-16T00:25:03.803Z,97366
2018-04-16T00:27:33.637Z,97352
2018-04-16T00:30:03.421Z,97345
2018-04-16T00:35:42.706Z,97350
2018-04-16T00:38:20.616Z,97346
2018-04-16T00:40:57.072Z,97347
2018-04-16T00:43:31.224Z,97354
2018-04-16T00:46:13.138Z,97353
2018-04-16T00:48:47.221Z,97355
2018-04-16T00:51:24.350Z,97351
2018-04-16T00:54:17.152Z,97351
2018-04-16T00:56:50.878Z,97355
2018-04-16T00:59:26.316Z,97357
2018-04-16T01:02:00.465Z,97348
2018-04-16T01:04:34.424Z,97352
2018-04-16T01:07:12.397Z,97355
2018-04-16T01:09:47.039Z,97356
2018-04-16T01:12:21.119Z,97359
2018-04-16T01:14:55.247Z,97353
2018-04-16T01:17:29.418Z,97357
2018-04-16T01:20:06.997Z,97360
2018-04-16T01:22:41.237Z,97357
2018-04-16T01:25:15.212Z,97359
2018-04-16T01:27:52.627Z,97364
2018-04-16T01:30:28.889Z,97365
2018-04-16T01:33:03.695Z,97371
2018-04-16T01:35:37.788Z,97370
2018-04-16T01:38:11.662Z,97370
2018-04-16T01:40:45.510Z,97366
2018-04-16T01:43:22.833Z,97376
2018-04-16T01:45:56.764Z,97376
2018-04-16T01:48:32.674Z,97381
2018-04-16T01:51:06.586Z,97376
2018-04-16T01:53:40.869Z,97372
2018-04-16T01:56:17.072Z,97375
2018-04-16T01:58:51.210Z,97375
2018-04-16T02:01:26.214Z,97375
2018-04-16T02:04:01.765Z,97381
2018-04-16T02:06:36.759Z,97394
2018-04-16T02:09:11.991Z,97401
2018-04-16T02:11:46.795Z,97404
2018-04-16T02:14:22.657Z,97404
2018-04-16T02:16:56.986Z,97404
2018-04-16T02:19:30.936Z,97404
2018-04-16T02:22:05.533Z,97409
2018-04-16T02:27:21.825Z,97414
2018-04-16T02:29:58.951Z,97423
2018-04-16T02:32:32.847Z,97422
2018-04-16T02:35:16.147Z,97416
2018-04-16T02:37:51.446Z,97420
2018-04-16T02:40:29.320Z,97425
2018-04-16T02:43:03.526Z,97428
2018-04-16T02:45:39.061Z,97419
2018-04-16T02:48:12.982Z,97420
2018-04-16T02:50:46.996Z,97426
2018-04-16T02:53:20.899Z,97427
2018-04-16T02:55:54.508Z,97433
2018-04-16T02:58:29.594Z,97433
2018-04-16T03:01:03.542Z,97438
2018-04-16T03:03:38.100Z,97443
2018-04-16T03:06:13.735Z,97446
2018-04-16T03:08:47.713Z,97441
2018-04-16T03:11:21.941Z,97443
2018-04-16T03:13:59.318Z,97440
2018-04-16T03:16:33.518Z,97438
2018-04-16T03:19:07.472Z,97436
2018-04-16T03:21:42.938Z,97430
2018-04-16T03:24:16.744Z,97427
2018-04-16T03:26:52.473Z,97432
2018-04-16T03:29:26.570Z,97433
2018-04-16T03:32:00.696Z,97432
2018-04-16T03:34:35.139Z,97435
2018-04-16T03:37:09.267Z,97438
2018-04-16T03:39:44.101Z,97435
2018-04-16T03:42:21.581Z,97441
2018-04-16T03:44:56.428Z,97438
2018-04-16T03:47:30.304Z,97442
2018-04-16T03:50:06.390Z,97448
2018-04-16T03:55:43.785Z,97455
2018-04-16T03:58:15.220Z,97464
2018-04-16T04:00:43.728Z,97473
2018-04-16T04:03:13.212Z,97471
2018-04-16T04:05:43.040Z,97474
2018-04-16T04:08:11.932Z,97465
2018-04-16T04:10:40.352Z,97465
2018-04-16T04:13:08.985Z,97473
2018-04-16T04:15:37.762Z,97487
2018-04-16T04:18:09.237Z,97495
2018-04-16T04:20:37.530Z,97501
2018-04-16T04:23:23.973Z,97492
2018-04-16T04:26:10.948Z,97492
2018-04-16T04:28:58.589Z,97492
2018-04-16T04:31:27.014Z,97490
2018-04-16T04:33:55.692Z,97499
2018-04-16T04:36:24.482Z,97499
2018-04-16T04:38:55.686Z,97501
2018-04-16T04:41:24.387Z,97504
2018-04-16T04:43:54.884Z,97509
2018-04-16T04:46:23.449Z,97508
2018-04-16T04:48:56.350Z,97511
2018-04-16T04:51:24.615Z,97509
2018-04-16T04:53:53.467Z,97510
2018-04-16T04:56:21.892Z,97508
2018-04-16T04:58:50.496Z,97517
2018-04-16T05:01:19.420Z,97525
2018-04-16T05:03:49.416Z,97522
2018-04-16T05:06:17.999Z,97525
2018-04-16T05:08:46.900Z,97533
2018-04-16T05:11:16.054Z,97537
2018-04-16T05:13:45.015Z,97534
2018-04-16T05:16:17.632Z,97535
2018-04-16T05:18:46.265Z,97531
2018-04-16T05:21:16.177Z,97528
2018-04-16T05:23:45.263Z,97533
2018-04-16T05:26:16.370Z,97529
2018-04-16T05:28:46.332Z,97530
2018-04-16T05:31:16.301Z,97533
2018-04-16T05:33:46.541Z,97542
2018-04-16T05:36:15.134Z,97549
2018-04-16T05:38:48.564Z,97556
2018-04-16T05:41:17.192Z,97556
2018-04-16T05:43:47.826Z,97569
2018-04-16T05:46:17.024Z,97568
2018-04-16T05:48:46.616Z,97572
2018-04-16T05:51:15.264Z,97567
2018-04-16T05:53:45.537Z,97569
2018-04-16T05:56:13.898Z,97579
2018-04-16T05:58:42.465Z,97584
2018-04-16T06:01:11.050Z,97588
2018-04-16T06:03:40.312Z,97589
2018-04-16T06:06:09.004Z,97589
2018-04-16T06:08:39.938Z,97587
2018-04-16T06:11:09.297Z,97590
2018-04-16T06:13:39.798Z,97594
2018-04-16T06:16:09.202Z,97592
2018-04-16T06:18:39.727Z,97585
2018-04-16T06:21:09.088Z,97593
2018-04-16T06:23:48.369Z,97598
2018-04-16T06:26:17.015Z,97603
2018-04-16T06:28:46.585Z,97601
2018-04-16T06:31:15.628Z,97600
2018-04-16T06:33:44.247Z,97605
2018-04-16T06:36:13.094Z,97606
2018-04-16T06:38:42.219Z,97615
2018-04-16T06:41:10.513Z,97612
2018-04-16T06:43:39.549Z,97609
2018-04-16T06:46:07.941Z,97609
2018-04-16T06:48:38.501Z,97607
2018-04-16T06:51:07.975Z,97610
2018-04-16T06:53:39.346Z,97607
2018-04-16T06:56:08.402Z,97610
2018-04-16T06:58:39.515Z,97611
2018-04-16T07:01:18.166Z,97608
2018-04-16T07:03:48.291Z,97608
2018-04-16T07:06:16.848Z,97614
2018-04-16T07:08:46.250Z,97622
2018-04-16T07:11:15.922Z,97622
2018-04-16T07:13:45.525Z,97629
2018-04-16T07:16:13.993Z,97636
2018-04-16T07:18:42.786Z,97639
2018-04-16T07:21:12.481Z,97636
2018-04-16T07:23:42.049Z,97639
2018-04-16T07:26:10.613Z,97639
2018-04-16T07:28:49.534Z,97640
2018-04-16T07:31:21.506Z,97641
2018-04-16T07:33:50.462Z,97638
2018-04-16T07:36:21.775Z,97640
2018-04-16T07:41:38.416Z,97651
2018-04-16T07:44:06.835Z,97656
2018-04-16T07:46:35.800Z,97657
2018-04-16T07:49:06.217Z,97656
2018-04-16T07:51:34.992Z,97650
2018-04-16T07:54:05.197Z,97651
2018-04-16T07:56:33.767Z,97647
2018-04-16T07:59:02.588Z,97649
2018-04-16T08:01:31.212Z,97649
2018-04-16T08:04:02.195Z,97652
2018-04-16T08:06:30.803Z,97646
2018-04-16T08:09:01.192Z,97650
2018-04-16T08:11:30.263Z,97655
2018-04-16T08:13:59.249Z,97655
2018-04-16T08:16:28.344Z,97657
2018-04-16T08:18:58.443Z,97656
2018-04-16T08:21:27.338Z,97657
2018-04-16T08:23:57.362Z,97658
2018-04-16T08:26:27.239Z,97660
2018-04-16T08:29:00.095Z,97661
2018-04-16T08:31:29.115Z,97665
2018-04-16T08:33:59.068Z,97671
2018-04-16T08:36:28.052Z,97673
2018-04-16T08:38:58.233Z,97672
2018-04-16T08:41:26.698Z,97670
2018-04-16T08:43:55.487Z,97680
2018-04-16T08:46:24.627Z,97674
2018-04-16T08:48:53.444Z,97677
2018-04-16T08:51:21.952Z,97676
2018-04-16T08:53:51.464Z,97675
2018-04-16T08:56:20.048Z,97679
2018-04-16T08:58:49.114Z,97678
2018-04-16T09:01:17.688Z,97679
2018-04-16T09:03:48.578Z,97676
2018-04-16T09:06:18.076Z,97681
2018-04-16T09:09:00.365Z,97684
2018-04-16T09:11:31.842Z,97684
2018-04-16T09:14:00.906Z,97690
2018-04-16T09:16:33.349Z,97690
2018-04-16T09:19:01.923Z,97686
2018-04-16T09:21:34.177Z,97684
2018-04-16T09:24:03.072Z,97686
2018-04-16T09:26:35.808Z,97691
2018-04-16T09:29:04.190Z,97690
2018-04-16T09:31:46.558Z,97686
2018-04-16T09:34:16.262Z,97686
2018-04-16T09:36:44.539Z,97690
2018-04-16T09:39:17.360Z,97695
2018-04-16T09:41:46.537Z,97692
2018-04-16T09:44:16.708Z,97698
2018-04-16T09:47:02.715Z,97698
2018-04-16T09:49:31.375Z,97698
2018-04-16T09:51:59.717Z,97702
2018-04-16T09:54:32.334Z,97702
2018-04-16T09:57:01.239Z,97703
2018-04-16T09:59:30.713Z,97703
2018-04-16T10:01:59.483Z,97700
2018-04-16T10:04:31.626Z,97702
2018-04-16T10:07:00.413Z,97706
2018-04-16T10:09:31.710Z,97703
2018-04-16T10:12:00.216Z,97708
2018-04-16T10:14:32.916Z,97707
2018-04-16T10:17:01.223Z,97713
2018-04-16T10:19:31.522Z,97710
2018-04-16T10:21:59.882Z,97710
2018-04-16T10:24:30.410Z,97710
2018-04-16T10:26:58.758Z,97715
2018-04-16T10:29:30.483Z,97715
2018-04-16T10:31:59.246Z,97716
2018-04-16T10:34:29.496Z,97717
2018-04-16T10:37:11.206Z,97718
2018-04-16T10:39:40.061Z,97721
2018-04-16T10:42:09.323Z,97726
2018-04-16T10:44:39.920Z,97718
2018-04-16T10:47:08.252Z,97724
2018-04-16T10:49:38.627Z,97731
2018-04-16T10:52:08.007Z,97722
2018-04-16T10:54:37.150Z,97721
2018-04-16T10:57:05.741Z,97723
2018-04-16T10:59:34.718Z,97719
2018-04-16T11:02:03.111Z,97721
2018-04-16T11:04:39.977Z,97723
2018-04-16T11:07:08.748Z,97722
2018-04-16T11:09:38.671Z,97724
2018-04-16T11:12:17.984Z,97728
2018-04-16T11:14:46.633Z,97732
2018-04-16T11:17:24.872Z,97736
2018-04-16T11:19:59.637Z,97737
2018-04-16T11:22:42.947Z,97739
2018-04-16T11:25:13.461Z,97738
2018-04-16T11:27:42.031Z,97737
2018-04-16T11:30:12.743Z,97741
2018-04-16T11:32:42.766Z,97742
2018-04-16T11:35:12.130Z,97749
2018-04-16T11:37:40.733Z,97750
2018-04-16T11:40:18.507Z,97752
2018-04-16T11:42:46.849Z,97753
2018-04-16T11:45:17.547Z,97754
2018-04-16T11:47:46.273Z,97757
2018-04-16T11:50:14.589Z,97757
2018-04-16T11:52:45.102Z,97758
2018-04-16T11:55:13.763Z,97764
2018-04-16T11:57:43.361Z,97762
2018-04-16T12:00:12.400Z,97760
2018-04-16T12:02:41.869Z,97758
2018-04-16T12:07:57.452Z,97764
2018-04-16T12:10:27.124Z,97759
2018-04-16T12:12:55.645Z,97761
2018-04-16T12:15:33.579Z,97773
2018-04-16T12:18:02.611Z,97770
2018-04-16T12:20:48.987Z,97774
2018-04-16T12:23:23.301Z,97773
2018-04-16T12:25:53.279Z,97775
2018-04-16T12:28:21.637Z,97777
2018-04-16T12:31:01.156Z,97771
2018-04-16T12:33:30.163Z,97768
2018-04-16T12:36:00.165Z,97778
2018-04-16T12:38:28.730Z,97774
2018-04-16T12:40:59.216Z,97776
2018-04-16T12:43:27.728Z,97772
2018-04-16T12:45:56.969Z,97770
2018-04-16T12:48:31.635Z,97773
2018-04-16T12:51:01.695Z,97771
2018-04-16T12:53:30.224Z,97768
2018-04-16T12:56:00.115Z,97768
2018-04-16T12:58:36.630Z,97766
2018-04-16T13:01:13.141Z,97767
2018-04-16T13:03:45.635Z,97765
2018-04-16T13:06:14.107Z,97767
2018-04-16T13:08:47.095Z,97767
2018-04-16T13:11:17.931Z,97769
2018-04-16T13:13:56.907Z,97767
2018-04-16T13:16:25.557Z,97762
2018-04-16T13:18:53.916Z,97758
2018-04-16T13:21:28.289Z,97765
2018-04-16T13:23:56.714Z,97757
2018-04-16T13:26:29.240Z,97760
2018-04-16T13:28:57.642Z,97760
2018-04-16T13:31:26.149Z,97756
2018-04-16T13:33:56.520Z,97760
2018-04-16T13:36:25.068Z,97762
2018-04-16T13:41:40.112Z,97762
2018-04-16T13:44:23.292Z,97766
2018-04-16T22:36:04.963Z,98350
2018-04-16T22:38:34.704Z,98352
2018-04-16T22:41:07.973Z,98357
2018-04-16T22:43:36.980Z,98362
2018-04-16T22:46:18.047Z,98365
2018-04-16T22:48:48.149Z,98363
2018-04-16T22:51:16.477Z,98365
2018-04-16T22:53:46.809Z,98365
2018-04-16T22:56:15.093Z,98363
2018-04-16T22:58:45.397Z,98365
2018-04-16T23:01:13.725Z,98372
2018-04-16T23:03:43.337Z,98374
2018-04-16T23:06:11.779Z,98374
2018-04-16T23:08:40.955Z,98374
2018-04-16T23:11:09.236Z,98377
2018-04-16T23:13:39.954Z,98374
2018-04-16T23:16:08.256Z,98389
2018-04-16T23:18:38.423Z,98387
2018-04-16T23:21:06.796Z,98392
2018-04-16T23:23:35.978Z,98396
2018-04-16T23:26:05.023Z,98402
2018-04-16T23:28:33.245Z,98409
2018-04-16T23:31:04.177Z,98405
2018-04-16T23:33:32.727Z,98402
2018-04-16T23:36:03.761Z,98407
2018-04-16T23:38:32.797Z,98408
2018-04-16T23:41:01.177Z,98409
2018-04-16T23:43:29.648Z,98410
2018-04-16T23:45:58.349Z,98416
2018-04-16T23:48:27.615Z,98416
2018-04-16T23:50:57.841Z,98415
2018-04-16T23:53:27.224Z,98419
2018-04-16T23:55:57.613Z,98422
2018-04-16T23:58:26.317Z,98432
